West Point, NE

8:27 AM CDT on September 23, 2014 (GMT -0500)
Fremont Municipal | Change Station
CLOSE
Current Station
Airport
Location: Fremont,
Elevation: 1204 ft
Nearby Weather Stations

Elev 1204 ft 41.45 °N, 96.52 °W | Updated 12 minutes ago

Rain
Rain
60 °F
Feels Like 60 °F
N
6
Wind Variable Wind from SE

Today
High -- | Low -- °F
--% Chance of Precip.
Yesterday
High -- | Low -- °F
Precip. -- in
7:15 AM 7:22 PM
Waning Crescent, 0% visible
Pressure 30.17 in
Visibility 10.0 miles
Clouds Overcast 11000 ft
Dew Point 54 °F
Humidity 81%
Rainfall 0.00 in
Snow Depth Not available.
UV 0 out of 12
Pollen 1.70 out of 12
Air Quality Not available.
Flu Activity Not available.
METAR KFET 231315Z AUTO 13005KT 10SM -DZ OVC110 16/12 A3017 RMK AO2 LTG DSNT SW T01550123

More Conditions Fewer Conditions

Pressure 30.17 in
Visibility 10.0 miles
Clouds Overcast 11000 ft
Dew Point 54 °F
Humidity 81%
Rainfall 0.00 in
Snow Depth Not available.
UV 0 out of 12
Pollen 1.70 out of 12
Air Quality Not available.
Flu Activity Not available.
METAR KFET 231315Z AUTO 13005KT 10SM -DZ OVC110 16/12 A3017 RMK AO2 LTG DSNT SW T01550123

More Conditions Fewer Conditions

10-Day Weather Forecast

Almanac

Astronomy

Sep. 23, 2014 Rise Set
Actual Time 7:15 AM CDT 7:22 PM CDT
Civil Twilight 6:47 AM CDT 7:50 PM CDT
Nautical Twilight 6:14 AM CDT 8:22 PM CDT
Astronomical Twilight 5:41 AM CDT 8:55 PM CDT
Moon 6:40 AM CDT 7:01 PM CDT
Length of Visible Light 13h 02m
Length of Day
12h 06m
Tomorrow will be 2m 47s shorter.
Waning Crescent, 0% of the Moon is Illuminated
Today
Waning Crescent
Sep 24
New
Oct 1
First Quarter
Oct 8
Full
Oct 15
Last Quarter

Today's Extremes

State Highs State Lows

Community

WunderPhotos

Upload Photos

1,755,669 photos uploaded!

WunderBlogs® & News

Nearby

Snow Depth

Station Depth Elevation
No new snow has been reported.

Earthquake Activity

City Distance Mag. Time & Date
No recent earthquake activity has been reported nearby.
Minimum magnitude displayed is 2.5.

Coastal Water Temperatures

Place Temperature
No Stations Reporting

Nearby Weather Stations